sensor_id;sensor_type;location;lat;lon;timestamp;pressure;altitude;pressure_sealevel;temperature;humidity
28630;BME280;15817;42.130;24.762;2023-09-12T00:00:16;100024.31;;;20.18;43.22
28630;BME280;15817;42.130;24.762;2023-09-12T00:02:45;100026.91;;;20.20;43.13
28630;BME280;15817;42.130;24.762;2023-09-12T00:05:11;100020.84;;;20.15;43.04
28630;BME280;15817;42.130;24.762;2023-09-12T00:07:40;100016.41;;;20.14;43.02
28630;BME280;15817;42.130;24.762;2023-09-12T00:10:06;100027.25;;;20.12;42.66
28630;BME280;15817;42.130;24.762;2023-09-12T00:12:34;100023.91;;;20.07;43.06
28630;BME280;15817;42.130;24.762;2023-09-12T00:15:00;100034.59;;;20.09;43.21
28630;BME280;15817;42.130;24.762;2023-09-12T00:17:28;100027.59;;;20.05;43.33
28630;BME280;15817;42.130;24.762;2023-09-12T00:19:54;100036.75;;;20.01;43.79
28630;BME280;15817;42.130;24.762;2023-09-12T00:22:20;100044.69;;;20.05;44.04
28630;BME280;15817;42.130;24.762;2023-09-12T00:24:45;100032.25;;;20.01;44.12
28630;BME280;15817;42.130;24.762;2023-09-12T00:27:23;100050.09;;;20.05;44.35
28630;BME280;15817;42.130;24.762;2023-09-12T00:29:49;100039.84;;;19.92;44.87
28630;BME280;15817;42.130;24.762;2023-09-12T00:32:15;100035.50;;;19.87;44.86
28630;BME280;15817;42.130;24.762;2023-09-12T00:34:40;100044.31;;;19.93;45.00
28630;BME280;15817;42.130;24.762;2023-09-12T00:37:06;100035.50;;;19.87;45.16
28630;BME280;15817;42.130;24.762;2023-09-12T00:39:37;100043.81;;;19.83;45.39
28630;BME280;15817;42.130;24.762;2023-09-12T00:42:03;100058.03;;;19.86;45.94
28630;BME280;15817;42.130;24.762;2023-09-12T00:44:33;100043.09;;;19.78;46.37
28630;BME280;15817;42.130;24.762;2023-09-12T00:47:00;100050.00;;;19.85;46.54
28630;BME280;15817;42.130;24.762;2023-09-12T00:49:28;100049.22;;;19.83;46.97
28630;BME280;15817;42.130;24.762;2023-09-12T00:51:56;100043.06;;;19.79;47.41
28630;BME280;15817;42.130;24.762;2023-09-12T00:54:22;100033.19;;;19.78;47.97
28630;BME280;15817;42.130;24.762;2023-09-12T00:56:51;100047.44;;;19.82;48.60
28630;BME280;15817;42.130;24.762;2023-09-12T00:59:18;100038.53;;;19.80;48.91
28630;BME280;15817;42.130;24.762;2023-09-12T01:01:44;100039.59;;;19.76;49.44
28630;BME280;15817;42.130;24.762;2023-09-12T01:04:10;100054.97;;;19.74;49.89
28630;BME280;15817;42.130;24.762;2023-09-12T01:06:39;100045.03;;;19.74;50.12
28630;BME280;15817;42.130;24.762;2023-09-12T01:09:05;100042.56;;;19.70;50.43
28630;BME280;15817;42.130;24.762;2023-09-12T01:11:31;100039.97;;;19.67;50.47
28630;BME280;15817;42.130;24.762;2023-09-12T01:13:59;100056.94;;;19.70;51.01
28630;BME280;15817;42.130;24.762;2023-09-12T01:16:26;100049.75;;;19.69;51.19
28630;BME280;15817;42.130;24.762;2023-09-12T01:18:52;100055.94;;;19.73;51.20
28630;BME280;15817;42.130;24.762;2023-09-12T01:24:27;100051.75;;;19.64;51.59
28630;BME280;15817;42.130;24.762;2023-09-12T01:27:19;100069.81;;;19.62;52.26
28630;BME280;15817;42.130;24.762;2023-09-12T01:29:51;100060.09;;;19.58;52.26
28630;BME280;15817;42.130;24.762;2023-09-12T01:32:20;100062.81;;;19.58;52.37
28630;BME280;15817;42.130;24.762;2023-09-12T01:34:46;100061.97;;;19.56;52.58
28630;BME280;15817;42.130;24.762;2023-09-12T01:37:12;100050.66;;;19.46;52.88
28630;BME280;15817;42.130;24.762;2023-09-12T01:39:38;100060.41;;;19.50;53.19
28630;BME280;15817;42.130;24.762;2023-09-12T01:42:05;100061.34;;;19.49;52.94
28630;BME280;15817;42.130;24.762;2023-09-12T01:44:32;100060.50;;;19.47;53.21
28630;BME280;15817;42.130;24.762;2023-09-12T01:47:03;100060.63;;;19.44;53.41
28630;BME280;15817;42.130;24.762;2023-09-12T01:49:30;100066.00;;;19.44;53.88
28630;BME280;15817;42.130;24.762;2023-09-12T01:51:59;100064.50;;;19.37;54.08
28630;BME280;15817;42.130;24.762;2023-09-12T01:54:34;100075.50;;;19.31;54.38
28630;BME280;15817;42.130;24.762;2023-09-12T01:57:02;100072.88;;;19.30;54.53
28630;BME280;15817;42.130;24.762;2023-09-12T01:59:28;100064.91;;;19.27;54.58
28630;BME280;15817;42.130;24.762;2023-09-12T02:01:55;100069.53;;;19.23;54.66
28630;BME280;15817;42.130;24.762;2023-09-12T02:04:30;100070.47;;;19.22;54.68
28630;BME280;15817;42.130;24.762;2023-09-12T02:06:56;100071.34;;;19.23;54.49
28630;BME280;15817;42.130;24.762;2023-09-12T02:09:24;100075.75;;;19.25;54.62
28630;BME280;15817;42.130;24.762;2023-09-12T02:11:51;100064.41;;;19.15;54.61
28630;BME280;15817;42.130;24.762;2023-09-12T02:14:19;100061.81;;;19.14;54.58
28630;BME280;15817;42.130;24.762;2023-09-12T02:16:45;100061.03;;;19.10;54.71
28630;BME280;15817;42.130;24.762;2023-09-12T02:19:13;100063.84;;;19.07;54.87
28630;BME280;15817;42.130;24.762;2023-09-12T02:21:42;100069.16;;;19.09;55.38
28630;BME280;15817;42.130;24.762;2023-09-12T02:24:10;100068.41;;;19.05;55.43
28630;BME280;15817;42.130;24.762;2023-09-12T02:26:36;100060.34;;;19.04;55.63
28630;BME280;15817;42.130;24.762;2023-09-12T02:29:05;100063.94;;;19.04;55.93
28630;BME280;15817;42.130;24.762;2023-09-12T02:31:34;100065.06;;;18.99;55.97
28630;BME280;15817;42.130;24.762;2023-09-12T02:34:00;100065.06;;;18.99;56.25
28630;BME280;15817;42.130;24.762;2023-09-12T02:36:26;100074.09;;;18.98;56.26
28630;BME280;15817;42.130;24.762;2023-09-12T02:38:58;100057.13;;;18.94;56.27
28630;BME280;15817;42.130;24.762;2023-09-12T02:41:24;100073.09;;;19.00;56.53
28630;BME280;15817;42.130;24.762;2023-09-12T02:43:49;100062.47;;;18.96;56.96
28630;BME280;15817;42.130;24.762;2023-09-12T02:46:22;100059.81;;;18.94;57.13
28630;BME280;15817;42.130;24.762;2023-09-12T02:48:48;100059.72;;;18.97;57.50
28630;BME280;15817;42.130;24.762;2023-09-12T02:51:31;100072.22;;;19.00;58.14
28630;BME280;15817;42.130;24.762;2023-09-12T02:54:05;100071.22;;;19.02;58.59
28630;BME280;15817;42.130;24.762;2023-09-12T02:56:34;100055.22;;;18.98;58.56
28630;BME280;15817;42.130;24.762;2023-09-12T02:59:09;100057.03;;;18.97;58.67
28630;BME280;15817;42.130;24.762;2023-09-12T03:01:35;100067.72;;;19.00;58.86
28630;BME280;15817;42.130;24.762;2023-09-12T03:04:03;100057.44;;;18.87;59.43
28630;BME280;15817;42.130;24.762;2023-09-12T03:06:34;100068.31;;;18.84;59.96
28630;BME280;15817;42.130;24.762;2023-09-12T03:09:01;100063.75;;;18.86;60.04
28630;BME280;15817;42.130;24.762;2023-09-12T03:11:28;100061.09;;;18.84;59.94
28630;BME280;15817;42.130;24.762;2023-09-12T03:14:06;100067.44;;;18.83;60.05
28630;BME280;15817;42.130;24.762;2023-09-12T03:16:34;100065.75;;;18.80;60.15
28630;BME280;15817;42.130;24.762;2023-09-12T03:19:09;100061.22;;;18.81;59.99
28630;BME280;15817;42.130;24.762;2023-09-12T03:21:35;100070.31;;;18.78;60.00
28630;BME280;15817;42.130;24.762;2023-09-12T03:24:04;100065.63;;;18.84;59.86
28630;BME280;15817;42.130;24.762;2023-09-12T03:26:33;100072.97;;;18.80;60.26
28630;BME280;15817;42.130;24.762;2023-09-12T03:29:16;100072.38;;;18.70;60.16
28630;BME280;15817;42.130;24.762;2023-09-12T03:31:47;100077.91;;;18.67;60.42
28630;BME280;15817;42.130;24.762;2023-09-12T03:34:18;100086.63;;;18.74;60.04
28630;BME280;15817;42.130;24.762;2023-09-12T03:36:49;100086.59;;;18.75;60.10
28630;BME280;15817;42.130;24.762;2023-09-12T03:39:18;100078.50;;;18.75;60.07
28630;BME280;15817;42.130;24.762;2023-09-12T03:41:47;100076.00;;;18.69;59.98
28630;BME280;15817;42.130;24.762;2023-09-12T03:44:31;100082.41;;;18.67;60.13
28630;BME280;15817;42.130;24.762;2023-09-12T03:47:05;100082.47;;;18.65;60.33
28630;BME280;15817;42.130;24.762;2023-09-12T03:49:34;100087.06;;;18.62;60.83
28630;BME280;15817;42.130;24.762;2023-09-12T03:52:00;100089.22;;;18.51;61.15
28630;BME280;15817;42.130;24.762;2023-09-12T03:54:26;100084.75;;;18.50;61.15
28630;BME280;15817;42.130;24.762;2023-09-12T03:56:58;100099.22;;;18.47;61.40
28630;BME280;15817;42.130;24.762;2023-09-12T03:59:30;100100.16;;;18.46;61.46
28630;BME280;15817;42.130;24.762;2023-09-12T04:01:56;100092.91;;;18.48;61.38
28630;BME280;15817;42.130;24.762;2023-09-12T04:04:24;100104.34;;;18.55;61.52
28630;BME280;15817;42.130;24.762;2023-09-12T04:06:59;100093.91;;;18.45;61.95
28630;BME280;15817;42.130;24.762;2023-09-12T04:09:28;100099.16;;;18.49;61.51
28630;BME280;15817;42.130;24.762;2023-09-12T04:11:56;100108.03;;;18.52;61.88
28630;BME280;15817;42.130;24.762;2023-09-12T04:14:22;100112.44;;;18.55;61.79
28630;BME280;15817;42.130;24.762;2023-09-12T04:16:48;100118.72;;;18.55;62.32
28630;BME280;15817;42.130;24.762;2023-09-12T04:19:14;100102.84;;;18.46;62.26
28630;BME280;15817;42.130;24.762;2023-09-12T04:21:43;100100.28;;;18.43;62.41
28630;BME280;15817;42.130;24.762;2023-09-12T04:24:11;100100.22;;;18.44;62.56
28630;BME280;15817;42.130;24.762;2023-09-12T04:26:37;100099.41;;;18.42;62.83
28630;BME280;15817;42.130;24.762;2023-09-12T04:29:03;100104.72;;;18.44;62.64
28630;BME280;15817;42.130;24.762;2023-09-12T04:31:29;100101.19;;;18.42;62.64
28630;BME280;15817;42.130;24.762;2023-09-12T04:37:16;100106.88;;;18.34;63.31
28630;BME280;15817;42.130;24.762;2023-09-12T04:39:44;100098.03;;;18.29;63.54
28630;BME280;15817;42.130;24.762;2023-09-12T04:42:11;100102.56;;;18.29;63.59
28630;BME280;15817;42.130;24.762;2023-09-12T04:44:41;100107.78;;;18.33;63.69
28630;BME280;15817;42.130;24.762;2023-09-12T04:47:16;100096.28;;;18.28;63.94
28630;BME280;15817;42.130;24.762;2023-09-12T04:49:43;100106.06;;;18.31;64.06
28630;BME280;15817;42.130;24.762;2023-09-12T04:52:14;100098.84;;;18.33;63.99
28630;BME280;15817;42.130;24.762;2023-09-12T04:54:46;100103.38;;;18.31;64.26
28630;BME280;15817;42.130;24.762;2023-09-12T04:57:12;100099.75;;;18.32;64.21
28630;BME280;15817;42.130;24.762;2023-09-12T04:59:38;100108.50;;;18.38;64.13
28630;BME280;15817;42.130;24.762;2023-09-12T05:02:04;100102.31;;;18.35;64.21
28630;BME280;15817;42.130;24.762;2023-09-12T05:04:30;100102.44;;;18.32;64.20
28630;BME280;15817;42.130;24.762;2023-09-12T05:06:59;100106.78;;;18.36;64.04
28630;BME280;15817;42.130;24.762;2023-09-12T05:09:27;100104.25;;;18.31;64.23
28630;BME280;15817;42.130;24.762;2023-09-12T05:11:53;100112.25;;;18.34;63.74
28630;BME280;15817;42.130;24.762;2023-09-12T05:14:19;100108.53;;;18.37;63.22
28630;BME280;15817;42.130;24.762;2023-09-12T05:16:53;100114.72;;;18.40;62.65
28630;BME280;15817;42.130;24.762;2023-09-12T05:19:40;100109.38;;;18.39;62.23
28630;BME280;15817;42.130;24.762;2023-09-12T05:22:23;100111.28;;;18.35;62.30
28630;BME280;15817;42.130;24.762;2023-09-12T05:25:01;100108.59;;;18.35;63.34
28630;BME280;15817;42.130;24.762;2023-09-12T05:27:38;100120.91;;;18.44;62.96
28630;BME280;15817;42.130;24.762;2023-09-12T05:30:36;100109.09;;;18.46;62.93
28630;BME280;15817;42.130;24.762;2023-09-12T05:33:37;100113.41;;;18.52;62.96
28630;BME280;15817;42.130;24.762;2023-09-12T05:36:18;100115.09;;;18.56;62.57
28630;BME280;15817;42.130;24.762;2023-09-12T05:38:53;100110.69;;;18.54;62.52
28630;BME280;15817;42.130;24.762;2023-09-12T05:42:01;100123.38;;;19.26;63.54
28630;BME280;15817;42.130;24.762;2023-09-12T05:45:12;100110.28;;;19.39;59.50
28630;BME280;15817;42.130;24.762;2023-09-12T05:48:38;100104.38;;;19.04;60.29
28630;BME280;15817;42.130;24.762;2023-09-12T05:51:11;100098.63;;;18.90;60.68
28630;BME280;15817;42.130;24.762;2023-09-12T05:53:43;100100.41;;;18.91;60.90
28630;BME280;15817;42.130;24.762;2023-09-12T05:56:18;100095.41;;;18.80;60.84
28630;BME280;15817;42.130;24.762;2023-09-12T05:58:47;100097.84;;;18.87;63.18
28630;BME280;15817;42.130;24.762;2023-09-12T06:01:23;100102.50;;;18.81;61.87
28630;BME280;15817;42.130;24.762;2023-09-12T06:03:52;100102.69;;;18.77;60.96
28630;BME280;15817;42.130;24.762;2023-09-12T06:06:22;100097.31;;;18.77;60.96
28630;BME280;15817;42.130;24.762;2023-09-12T06:08:57;100100.06;;;18.75;61.07
28630;BME280;15817;42.130;24.762;2023-09-12T06:11:26;100100.16;;;18.72;60.19
28630;BME280;15817;42.130;24.762;2023-09-12T06:13:55;100104.66;;;18.72;60.58
28630;BME280;15817;42.130;24.762;2023-09-12T06:16:37;100099.47;;;18.67;61.06
28630;BME280;15817;42.130;24.762;2023-09-12T06:19:17;100119.84;;;18.74;61.57
28630;BME280;15817;42.130;24.762;2023-09-12T06:21:45;100110.09;;;18.70;62.11
28630;BME280;15817;42.130;24.762;2023-09-12T06:24:21;100120.88;;;18.70;62.08
28630;BME280;15817;42.130;24.762;2023-09-12T06:26:48;100122.59;;;18.73;62.03
28630;BME280;15817;42.130;24.762;2023-09-12T06:29:19;100127.88;;;18.76;62.43
28630;BME280;15817;42.130;24.762;2023-09-12T06:31:45;100118.28;;;18.69;62.98
28630;BME280;15817;42.130;24.762;2023-09-12T06:34:18;100119.06;;;18.71;62.58
28630;BME280;15817;42.130;24.762;2023-09-12T06:36:50;100125.88;;;18.81;62.85
28630;BME280;15817;42.130;24.762;2023-09-12T06:39:15;100110.56;;;18.83;63.66
28630;BME280;15817;42.130;24.762;2023-09-12T06:41:53;100125.41;;;18.95;63.41
28630;BME280;15817;42.130;24.762;2023-09-12T06:44:19;100127.91;;;19.01;64.27
28630;BME280;15817;42.130;24.762;2023-09-12T06:46:49;100118.03;;;19.00;64.20
28630;BME280;15817;42.130;24.762;2023-09-12T06:49:15;100123.88;;;19.12;65.10
28630;BME280;15817;42.130;24.762;2023-09-12T06:51:43;100115.84;;;19.11;63.85
28630;BME280;15817;42.130;24.762;2023-09-12T06:54:15;100128.91;;;19.22;65.43
28630;BME280;15817;42.130;24.762;2023-09-12T06:56:43;100118.25;;;19.18;63.95
28630;BME280;15817;42.130;24.762;2023-09-12T06:59:09;100124.47;;;19.21;63.95
28630;BME280;15817;42.130;24.762;2023-09-12T07:01:40;100122.41;;;19.27;63.14
28630;BME280;15817;42.130;24.762;2023-09-12T07:04:06;100121.31;;;19.33;62.68
28630;BME280;15817;42.130;24.762;2023-09-12T07:06:34;100129.34;;;19.34;61.79
28630;BME280;15817;42.130;24.762;2023-09-12T07:09:05;100122.66;;;19.44;61.93
28630;BME280;15817;42.130;24.762;2023-09-12T07:11:35;100128.44;;;19.59;61.03
28630;BME280;15817;42.130;24.762;2023-09-12T07:14:00;100117.28;;;19.68;60.54
28630;BME280;15817;42.130;24.762;2023-09-12T07:19:47;100118.59;;;20.03;60.20
28630;BME280;15817;42.130;24.762;2023-09-12T07:22:15;100118.03;;;20.16;60.26
28630;BME280;15817;42.130;24.762;2023-09-12T07:24:43;100123.50;;;20.37;58.96
28630;BME280;15817;42.130;24.762;2023-09-12T07:27:11;100118.81;;;20.62;58.16
28630;BME280;15817;42.130;24.762;2023-09-12T07:29:38;100121.53;;;20.82;58.05
28630;BME280;15817;42.130;24.762;2023-09-12T07:32:06;100126.00;;;21.04;57.38
28630;BME280;15817;42.130;24.762;2023-09-12T07:34:35;100109.16;;;21.17;56.71
28630;BME280;15817;42.130;24.762;2023-09-12T07:37:02;100116.88;;;21.26;56.76
28630;BME280;15817;42.130;24.762;2023-09-12T07:39:28;100117.06;;;21.42;56.85
28630;BME280;15817;42.130;24.762;2023-09-12T07:42:05;100105.28;;;21.43;57.60
28630;BME280;15817;42.130;24.762;2023-09-12T07:44:33;100113.28;;;21.65;57.92
28630;BME280;15817;42.130;24.762;2023-09-12T07:47:08;100104.56;;;21.77;56.87
28630;BME280;15817;42.130;24.762;2023-09-12T07:49:36;100097.59;;;21.90;56.30
28630;BME280;15817;42.130;24.762;2023-09-12T07:52:02;100108.50;;;22.08;55.96
28630;BME280;15817;42.130;24.762;2023-09-12T07:54:30;100106.22;;;22.17;55.87
28630;BME280;15817;42.130;24.762;2023-09-12T07:56:58;100104.44;;;22.35;55.86
28630;BME280;15817;42.130;24.762;2023-09-12T07:59:25;100097.38;;;22.50;54.92
28630;BME280;15817;42.130;24.762;2023-09-12T08:01:51;100099.34;;;22.63;54.76
28630;BME280;15817;42.130;24.762;2023-09-12T08:04:20;100097.81;;;22.75;53.09
28630;BME280;15817;42.130;24.762;2023-09-12T08:06:45;100101.94;;;23.01;52.07
28630;BME280;15817;42.130;24.762;2023-09-12T08:09:11;100098.19;;;23.03;51.98
28630;BME280;15817;42.130;24.762;2023-09-12T08:11:44;100098.56;;;23.13;52.10
28630;BME280;15817;42.130;24.762;2023-09-12T08:14:16;100093.56;;;23.21;52.94
28630;BME280;15817;42.130;24.762;2023-09-12T08:16:45;100090.13;;;23.35;53.13
28630;BME280;15817;42.130;24.762;2023-09-12T08:19:11;100090.56;;;23.43;52.43
28630;BME280;15817;42.130;24.762;2023-09-12T08:21:39;100100.97;;;23.52;52.02
28630;BME280;15817;42.130;24.762;2023-09-12T08:24:08;100088.16;;;23.54;50.97
28630;BME280;15817;42.130;24.762;2023-09-12T08:26:34;100082.25;;;23.63;50.75
28630;BME280;15817;42.130;24.762;2023-09-12T08:28:59;100086.78;;;23.78;50.42
28630;BME280;15817;42.130;24.762;2023-09-12T08:31:27;100080.06;;;23.86;50.79
28630;BME280;15817;42.130;24.762;2023-09-12T08:33:53;100081.78;;;24.02;50.36
28630;BME280;15817;42.130;24.762;2023-09-12T08:36:19;100084.50;;;24.18;50.85
28630;BME280;15817;42.130;24.762;2023-09-12T08:42:05;100072.16;;;24.28;49.39
28630;BME280;15817;42.130;24.762;2023-09-12T08:44:31;100070.06;;;24.33;48.67
28630;BME280;15817;42.130;24.762;2023-09-12T08:47:00;100065.59;;;24.46;48.21
28630;BME280;15817;42.130;24.762;2023-09-12T08:49:27;100079.19;;;24.62;47.41
28630;BME280;15817;42.130;24.762;2023-09-12T08:51:54;100068.53;;;24.73;47.72
28630;BME280;15817;42.130;24.762;2023-09-12T08:54:19;100082.44;;;24.83;47.61
28630;BME280;15817;42.130;24.762;2023-09-12T08:56:45;100072.34;;;24.85;47.56
28630;BME280;15817;42.130;24.762;2023-09-12T08:59:11;100081.72;;;24.95;46.67
28630;BME280;15817;42.130;24.762;2023-09-12T09:01:41;100081.13;;;25.04;46.35
28630;BME280;15817;42.130;24.762;2023-09-12T09:04:08;100072.50;;;25.12;45.86
28630;BME280;15817;42.130;24.762;2023-09-12T09:06:36;100061.91;;;25.21;46.37
28630;BME280;15817;42.130;24.762;2023-09-12T09:09:08;100065.81;;;25.32;46.02
28630;BME280;15817;42.130;24.762;2023-09-12T09:11:34;100066.50;;;25.49;45.44
28630;BME280;15817;42.130;24.762;2023-09-12T09:14:03;100054.91;;;25.60;45.35
28630;BME280;15817;42.130;24.762;2023-09-12T09:16:32;100066.09;;;25.84;44.61
28630;BME280;15817;42.130;24.762;2023-09-12T09:19:05;100062.66;;;25.94;44.43
28630;BME280;15817;42.130;24.762;2023-09-12T09:21:38;100049.84;;;25.82;43.89
28630;BME280;15817;42.130;24.762;2023-09-12T09:24:11;100058.38;;;25.90;43.53
28630;BME280;15817;42.130;24.762;2023-09-12T09:26:55;100059.31;;;26.04;42.71
28630;BME280;15817;42.130;24.762;2023-09-12T09:29:30;100042.22;;;26.14;42.68
28630;BME280;15817;42.130;24.762;2023-09-12T09:32:01;100050.94;;;26.19;42.38
28630;BME280;15817;42.130;24.762;2023-09-12T09:34:41;100051.72;;;26.36;41.95
28630;BME280;15817;42.130;24.762;2023-09-12T09:37:07;100046.59;;;26.44;41.92
28630;BME280;15817;42.130;24.762;2023-09-12T09:39:36;100036.16;;;26.50;41.83
28630;BME280;15817;42.130;24.762;2023-09-12T09:42:02;100036.28;;;26.61;42.85
28630;BME280;15817;42.130;24.762;2023-09-12T09:44:28;100033.66;;;26.60;41.19
28630;BME280;15817;42.130;24.762;2023-09-12T09:47:10;100042.63;;;26.75;40.03
28630;BME280;15817;42.130;24.762;2023-09-12T09:49:46;100031.16;;;26.82;41.28
28630;BME280;15817;42.130;24.762;2023-09-12T09:52:23;100030.19;;;26.83;40.15
28630;BME280;15817;42.130;24.762;2023-09-12T09:54:50;100037.94;;;26.89;39.36
28630;BME280;15817;42.130;24.762;2023-09-12T09:57:25;100031.59;;;26.89;39.38
28630;BME280;15817;42.130;24.762;2023-09-12T09:59:54;100026.75;;;26.94;38.00
28630;BME280;15817;42.130;24.762;2023-09-12T10:02:54;100035.81;;;27.07;38.04
28630;BME280;15817;42.130;24.762;2023-09-12T10:05:37;100027.25;;;27.12;38.48
28630;BME280;15817;42.130;24.762;2023-09-12T10:08:20;100028.03;;;27.14;38.20
28630;BME280;15817;42.130;24.762;2023-09-12T10:11:30;100013.41;;;27.15;38.12
28630;BME280;15817;42.130;24.762;2023-09-12T10:14:48;100010.75;;;27.26;38.58
28630;BME280;15817;42.130;24.762;2023-09-12T10:33:20;100003.63;;;27.61;37.54
28630;BME280;15817;42.130;24.762;2023-09-12T10:41:05;99992.13;;;27.69;36.16
28630;BME280;15817;42.130;24.762;2023-09-12T10:56:35;99960.38;;;27.79;38.26
28630;BME280;15817;42.130;24.762;2023-09-12T10:59:29;99960.59;;;27.76;38.29
28630;BME280;15817;42.130;24.762;2023-09-12T11:09:45;99937.81;;;27.88;38.64
28630;BME280;15817;42.130;24.762;2023-09-12T11:12:36;99940.75;;;28.09;38.11
28630;BME280;15817;42.130;24.762;2023-09-12T11:15:08;99937.09;;;28.21;37.65
28630;BME280;15817;42.130;24.762;2023-09-12T11:17:46;99945.34;;;28.32;38.04
28630;BME280;15817;42.130;24.762;2023-09-12T11:20:13;99939.25;;;28.40;36.79
28630;BME280;15817;42.130;24.762;2023-09-12T11:26:22;99926.72;;;28.37;37.83
28630;BME280;15817;42.130;24.762;2023-09-12T11:29:30;99926.84;;;28.36;38.03
28630;BME280;15817;42.130;24.762;2023-09-12T11:32:37;99926.03;;;28.23;37.81
28630;BME280;15817;42.130;24.762;2023-09-12T11:35:47;99929.13;;;28.18;37.82
28630;BME280;15817;42.130;24.762;2023-09-12T11:38:49;99933.75;;;28.29;37.63
28630;BME280;15817;42.130;24.762;2023-09-12T11:42:02;99928.94;;;28.32;37.19
28630;BME280;15817;42.130;24.762;2023-09-12T11:52:38;99902.63;;;28.19;37.79
28630;BME280;15817;42.130;24.762;2023-09-12T11:58:06;99892.50;;;28.32;37.39
28630;BME280;15817;42.130;24.762;2023-09-12T12:00:59;99892.13;;;28.36;38.08
28630;BME280;15817;42.130;24.762;2023-09-12T12:04:02;99891.72;;;28.30;37.72
28630;BME280;15817;42.130;24.762;2023-09-12T12:06:51;99884.50;;;28.29;38.24
28630;BME280;15817;42.130;24.762;2023-09-12T12:10:02;99880.63;;;28.20;37.41
28630;BME280;15817;42.130;24.762;2023-09-12T12:13:40;99874.31;;;28.31;37.52
28630;BME280;15817;42.130;24.762;2023-09-12T12:16:17;99875.97;;;28.44;37.69
28630;BME280;15817;42.130;24.762;2023-09-12T12:19:19;99859.31;;;28.36;37.90
28630;BME280;15817;42.130;24.762;2023-09-12T12:22:09;99862.13;;;28.24;37.48
28630;BME280;15817;42.130;24.762;2023-09-12T12:29:17;99858.53;;;28.34;37.88
28630;BME280;15817;42.130;24.762;2023-09-12T12:35:30;99849.84;;;28.40;37.71
28630;BME280;15817;42.130;24.762;2023-09-12T12:38:24;99848.09;;;28.51;36.86
28630;BME280;15817;42.130;24.762;2023-09-12T12:41:11;99852.81;;;28.26;37.27
28630;BME280;15817;42.130;24.762;2023-09-12T12:43:58;99849.81;;;28.29;37.55
28630;BME280;15817;42.130;24.762;2023-09-12T12:47:03;99848.94;;;28.29;37.91
28630;BME280;15817;42.130;24.762;2023-09-12T12:49:55;99843.97;;;28.23;38.08
28630;BME280;15817;42.130;24.762;2023-09-12T12:52:27;99846.84;;;28.32;37.88
28630;BME280;15817;42.130;24.762;2023-09-12T12:55:15;99831.31;;;28.33;36.56
28630;BME280;15817;42.130;24.762;2023-09-12T12:57:47;99843.59;;;28.38;36.78
28630;BME280;15817;42.130;24.762;2023-09-12T13:00:30;99836.91;;;28.31;36.60
28630;BME280;15817;42.130;24.762;2023-09-12T13:03:01;99830.94;;;28.37;36.72
28630;BME280;15817;42.130;24.762;2023-09-12T13:05:52;99830.78;;;28.39;37.30
28630;BME280;15817;42.130;24.762;2023-09-12T13:08:46;99834.78;;;28.35;36.69
28630;BME280;15817;42.130;24.762;2023-09-12T13:11:38;99837.66;;;28.33;37.34
28630;BME280;15817;42.130;24.762;2023-09-12T13:18:08;99833.31;;;28.07;38.04
28630;BME280;15817;42.130;24.762;2023-09-12T13:24:26;99830.22;;;28.00;37.86
28630;BME280;15817;42.130;24.762;2023-09-12T13:27:18;99824.22;;;27.95;37.88
28630;BME280;15817;42.130;24.762;2023-09-12T13:29:57;99823.72;;;27.90;37.59
28630;BME280;15817;42.130;24.762;2023-09-12T13:33:01;99831.63;;;27.82;36.97
28630;BME280;15817;42.130;24.762;2023-09-12T13:35:57;99827.41;;;27.78;37.23
28630;BME280;15817;42.130;24.762;2023-09-12T13:38:53;99824.94;;;27.86;37.33
28630;BME280;15817;42.130;24.762;2023-09-12T13:41:34;99817.34;;;27.79;36.39
28630;BME280;15817;42.130;24.762;2023-09-12T13:44:27;99816.34;;;27.68;36.25
28630;BME280;15817;42.130;24.762;2023-09-12T13:47:31;99823.00;;;27.64;36.58
28630;BME280;15817;42.130;24.762;2023-09-12T13:50:33;99815.56;;;27.66;37.03
28630;BME280;15817;42.130;24.762;2023-09-12T13:53:12;99825.44;;;27.80;36.60
28630;BME280;15817;42.130;24.762;2023-09-12T13:55:53;99814.34;;;27.82;36.88
28630;BME280;15817;42.130;24.762;2023-09-12T13:58:39;99815.66;;;27.89;35.08
28630;BME280;15817;42.130;24.762;2023-09-12T14:01:18;99819.47;;;27.86;36.39
28630;BME280;15817;42.130;24.762;2023-09-12T14:03:54;99811.78;;;27.80;36.21
28630;BME280;15817;42.130;24.762;2023-09-12T14:06:26;99808.41;;;27.77;36.23
28630;BME280;15817;42.130;24.762;2023-09-12T14:09:28;99815.72;;;27.76;37.06
28630;BME280;15817;42.130;24.762;2023-09-12T14:12:30;99810.00;;;27.68;37.77
28630;BME280;15817;42.130;24.762;2023-09-12T14:15:34;99807.06;;;27.58;37.78
28630;BME280;15817;42.130;24.762;2023-09-12T14:18:51;99821.28;;;27.63;37.31
28630;BME280;15817;42.130;24.762;2023-09-12T14:26:20;99808.59;;;27.62;37.08
28630;BME280;15817;42.130;24.762;2023-09-12T14:29:23;99817.56;;;27.64;37.46
28630;BME280;15817;42.130;24.762;2023-09-12T14:31:57;99811.31;;;27.62;36.95
28630;BME280;15817;42.130;24.762;2023-09-12T14:34:42;99806.97;;;27.60;36.88
28630;BME280;15817;42.130;24.762;2023-09-12T14:37:25;99806.09;;;27.59;36.50
28630;BME280;15817;42.130;24.762;2023-09-12T14:40:03;99805.47;;;27.56;37.01
28630;BME280;15817;42.130;24.762;2023-09-12T14:43:07;99802.81;;;27.54;37.17
28630;BME280;15817;42.130;24.762;2023-09-12T14:45:42;99807.41;;;27.54;37.12
28630;BME280;15817;42.130;24.762;2023-09-12T14:48:10;99795.94;;;27.49;37.13
28630;BME280;15817;42.130;24.762;2023-09-12T14:50:53;99809.16;;;27.55;37.46